CheckWX is a tool to help pilots better visualize weather data.  It is not intended as a substitute for an official pre-flight weather briefing.

06:45:49 UTC

GMFF TAF
Saïss Airport
Fes, Morocco
TAF GMFF 160500Z 1606/1712 22006KT CAVOK BECMG 1610/1614 32012KT FEW030 SCT230 BECMG 1617/1621 20006KT CAVOK

Jun-16@
06:00 UTC

Jun-16 @ 06:00 UTC

Jun-16@
10:00 UTC

Jun-16 @ 10:00 UTC

TAF GMFF 160500Z 1606/1712 22006KT CAVOK
Wind
  • 220° at 6 KTS
Conditions
No significant weather
Cloud Levels
  • No significant clouds

Jun-16@
10:00 UTC

Jun-16 @ 10:00 UTC

Jun-16@
17:00 UTC

Jun-16 @ 17:00 UTC

BECMG 1610/1614 32012KT FEW030 SCT230

Becoming

Becoming Conditions expected by Sun, Jun 16, 2019 @ 14:00 UTC

Wind
  • 320° at 12 KTS
Conditions
No significant weather
Cloud Levels
  • Few at 3,000' AGL
  • Scattered at 23,000' AGL

Jun-16@
17:00 UTC

Jun-16 @ 17:00 UTC

Jun-17@
12:00 UTC

Jun-17 @ 12:00 UTC

BECMG 1617/1621 20006KT CAVOK

Becoming

Becoming Conditions expected by Sun, Jun 16, 2019 @ 21:00 UTC

Wind
  • 200° at 6 KTS
Conditions
No significant weather
Cloud Levels
  • No significant clouds